Time;durP1;ratioP1;P1;durP2;ratioP2;P2;SDS_P1;SDS_P2;PMS_P1;PMS_P2;Temp;Humidity;BMP_temperature;BMP_pressure;BME280_temperature;BME280_humidity;BME280_pressure;Samples;Min_cycle;Max_cycle;Signal;HPM_P1;HPM_P2
2021/05/12 00:00:30;;;;;;;26.25;16.65;;;13.20;99.90;;;;;;5030885;28;20041;-45
2021/05/12 00:02:56;;;;;;;30.75;19.38;;;13.20;99.90;;;;;;5030756;28;20049;-45
2021/05/12 00:05:24;;;;;;;31.13;18.92;;;13.20;99.90;;;;;;5030654;28;20053;-46
2021/05/12 00:07:50;;;;;;;32.72;20.95;;;13.20;99.90;;;;;;5029766;28;20380;-47
2021/05/12 00:10:17;;;;;;;31.88;21.60;;;13.20;99.90;;;;;;5030496;28;20471;-45
2021/05/12 00:12:43;;;;;;;33.53;20.45;;;13.20;99.90;;;;;;5030508;28;20641;-46
2021/05/12 00:15:12;;;;;;;31.15;20.55;;;13.20;99.90;;;;;;5030635;28;20100;-44
2021/05/12 00:17:39;;;;;;;33.35;21.15;;;13.20;99.90;;;;;;5029843;28;20564;-44
2021/05/12 00:20:07;;;;;;;28.38;19.85;;;13.20;99.90;;;;;;5030475;28;20022;-45
2021/05/12 00:24:58;;;;;;;36.42;23.65;;;13.20;99.90;;;;;;5030721;28;20028;-45
2021/05/12 00:27:24;;;;;;;36.30;22.40;;;13.20;99.90;;;;;;5029786;28;20029;-46
2021/05/12 00:29:51;;;;;;;37.00;23.85;;;13.20;99.90;;;;;;5028895;28;20525;-45
2021/05/12 00:32:16;;;;;;;34.33;22.00;;;13.10;99.90;;;;;;5029514;28;20041;-45
2021/05/12 00:34:42;;;;;;;36.08;22.90;;;13.10;99.90;;;;;;5028961;28;20513;-46
2021/05/12 00:37:07;;;;;;;41.55;24.25;;;13.10;99.90;;;;;;5030919;28;20026;-44
2021/05/12 00:39:33;;;;;;;41.88;25.15;;;13.10;99.90;;;;;;5030047;28;20026;-44
2021/05/12 00:42:00;;;;;;;38.30;24.73;;;13.10;99.90;;;;;;5030486;28;20033;-45
2021/05/12 00:44:26;;;;;;;42.72;26.38;;;13.10;99.90;;;;;;5030526;28;20057;-47
2021/05/12 00:46:52;;;;;;;39.42;24.95;;;13.00;99.90;;;;;;5029945;28;20514;-45
2021/05/12 00:49:19;;;;;;;48.55;26.27;;;13.10;99.90;;;;;;5030176;28;20052;-46
2021/05/12 00:51:45;;;;;;;36.60;24.38;;;13.00;99.90;;;;;;5030584;28;20104;-44
2021/05/12 00:54:11;;;;;;;36.75;23.13;;;13.00;99.90;;;;;;5029913;28;20239;-47
2021/05/12 00:56:40;;;;;;;36.25;22.70;;;13.00;99.90;;;;;;5030039;28;20022;-45
2021/05/12 00:59:06;;;;;;;41.97;23.08;;;13.00;99.90;;;;;;5029812;28;20026;-44
2021/05/12 01:01:32;;;;;;;35.75;20.95;;;12.90;99.90;;;;;;5030078;28;20039;-45
2021/05/12 01:03:57;;;;;;;34.85;19.98;;;13.00;99.90;;;;;;5030404;28;20108;-47
2021/05/12 01:06:27;;;;;;;36.50;20.90;;;13.00;99.90;;;;;;5030127;28;20613;-46
2021/05/12 01:08:52;;;;;;;31.65;20.13;;;12.90;99.90;;;;;;5029656;28;20049;-45
2021/05/12 01:11:18;;;;;;;30.05;18.75;;;12.80;99.90;;;;;;5028581;28;20062;-44
2021/05/12 01:13:44;;;;;;;27.52;18.60;;;12.80;99.90;;;;;;5028466;28;20052;-46
2021/05/12 01:16:11;;;;;;;31.80;17.95;;;12.80;99.90;;;;;;5029871;28;20626;-44
2021/05/12 01:18:37;;;;;;;28.58;19.00;;;12.80;99.90;;;;;;5029380;28;20017;-45
2021/05/12 01:21:06;;;;;;;28.45;16.65;;;12.80;99.90;;;;;;5030178;28;20104;-44
2021/05/12 01:23:34;;;;;;;31.75;17.75;;;12.80;99.90;;;;;;5029724;28;20018;-45
2021/05/12 01:26:02;;;;;;;26.75;17.27;;;12.80;99.90;;;;;;5029586;28;20053;-45
2021/05/12 01:28:33;;;;;;;28.23;16.33;;;12.80;99.90;;;;;;5027946;28;20021;-46
2021/05/12 01:31:03;;;;;;;26.15;16.92;;;12.80;99.90;;;;;;5029547;28;20133;-47
2021/05/12 01:33:29;;;;;;;26.88;15.95;;;12.70;99.90;;;;;;5030001;28;20061;-45
2021/05/12 01:35:55;;;;;;;22.52;16.25;;;12.70;99.90;;;;;;5028532;28;20265;-45
2021/05/12 01:38:21;;;;;;;24.58;15.68;;;12.80;99.90;;;;;;5029232;28;20161;-45
2021/05/12 01:40:48;;;;;;;27.27;16.25;;;12.70;99.90;;;;;;5029185;28;20021;-45
2021/05/12 01:43:14;;;;;;;23.13;15.02;;;12.70;99.90;;;;;;5028049;28;20026;-44
2021/05/12 01:45:40;;;;;;;21.13;13.98;;;12.70;99.90;;;;;;5029259;28;20025;-45
2021/05/12 01:48:07;;;;;;;23.30;15.15;;;12.70;99.90;;;;;;5029010;28;20022;-47
2021/05/12 01:50:33;;;;;;;25.58;14.73;;;12.70;99.90;;;;;;5029337;28;20117;-44
2021/05/12 01:52:59;;;;;;;21.05;13.30;;;12.70;99.90;;;;;;5029391;28;20493;-45
2021/05/12 01:55:24;;;;;;;22.35;12.95;;;12.70;99.90;;;;;;5029215;28;20041;-45
2021/05/12 01:57:50;;;;;;;24.83;14.95;;;12.70;99.90;;;;;;5027467;28;20240;-46
2021/05/12 02:00:40;;;;;;;27.25;16.30;;;12.70;99.90;;;;;;5029158;28;20038;-45
2021/05/12 02:03:10;;;;;;;23.80;15.90;;;12.80;99.90;;;;;;5029275;28;20056;-45
2021/05/12 02:05:38;;;;;;;22.47;14.33;;;12.80;99.90;;;;;;5029169;28;20026;-47
2021/05/12 02:08:06;;;;;;;25.35;16.77;;;12.80;99.90;;;;;;5027306;28;20519;-45
2021/05/12 02:10:32;;;;;;;22.73;16.80;;;12.80;99.90;;;;;;5027906;28;20499;-46
2021/05/12 02:12:57;;;;;;;22.17;16.60;;;12.80;99.90;;;;;;5028777;28;20127;-45
2021/05/12 02:15:23;;;;;;;25.85;16.13;;;12.80;99.90;;;;;;5028865;28;20021;-45
2021/05/12 02:17:50;;;;;;;24.02;16.33;;;12.80;99.90;;;;;;5028400;28;20499;-45
2021/05/12 02:20:18;;;;;;;30.58;17.90;;;12.80;99.90;;;;;;5029046;28;20036;-46
2021/05/12 02:22:44;;;;;;;26.60;18.15;;;12.80;99.90;;;;;;5028781;28;20053;-47
2021/05/12 02:25:11;;;;;;;29.27;18.98;;;12.80;99.90;;;;;;5028879;28;20556;-46
2021/05/12 02:27:36;;;;;;;24.88;17.90;;;12.80;99.90;;;;;;5027737;28;20021;-46
2021/05/12 02:30:04;;;;;;;28.20;18.70;;;12.80;99.90;;;;;;5029175;28;20079;-45
2021/05/12 02:32:30;;;;;;;29.15;19.30;;;12.70;99.90;;;;;;5028711;28;20047;-45
2021/05/12 02:34:57;;;;;;;27.90;18.83;;;12.80;99.90;;;;;;5028857;28;20021;-46
2021/05/12 02:37:23;;;;;;;28.58;18.20;;;12.70;99.90;;;;;;5027599;28;20075;-46
2021/05/12 02:39:49;;;;;;;28.15;17.70;;;12.70;99.90;;;;;;5027204;28;20498;-47
2021/05/12 02:42:14;;;;;;;29.23;19.38;;;12.70;99.90;;;;;;5028513;28;20071;-44
2021/05/12 02:44:40;;;;;;;30.27;19.23;;;12.70;99.90;;;;;;5028840;28;20245;-44
2021/05/12 02:47:05;;;;;;;27.95;18.08;;;12.70;99.90;;;;;;5028529;28;20284;-45
2021/05/12 02:49:31;;;;;;;29.55;20.13;;;12.70;99.90;;;;;;5027874;28;20037;-45
2021/05/12 02:51:56;;;;;;;31.65;19.85;;;12.70;99.90;;;;;;5028047;28;20395;-45
2021/05/12 02:54:22;;;;;;;31.58;19.52;;;12.70;99.90;;;;;;5028038;28;20057;-45
2021/05/12 02:56:48;;;;;;;29.60;19.58;;;12.70;99.90;;;;;;5028109;28;20041;-44
2021/05/12 02:59:13;;;;;;;30.27;18.65;;;12.70;99.90;;;;;;5027947;28;20033;-44
2021/05/12 03:01:39;;;;;;;33.72;20.45;;;12.70;99.90;;;;;;5028108;28;20033;-45
2021/05/12 03:04:04;;;;;;;31.85;21.42;;;12.70;99.90;;;;;;5028733;28;20021;-46
2021/05/12 03:06:30;;;;;;;29.88;18.80;;;12.70;99.90;;;;;;5028347;28;20028;-46
2021/05/12 03:08:55;;;;;;;34.30;20.98;;;12.70;99.90;;;;;;5029810;28;20025;-46
2021/05/12 03:11:21;;;;;;;31.17;20.45;;;12.70;99.90;;;;;;5032116;28;20022;-45
2021/05/12 03:13:47;;;;;;;32.33;20.10;;;12.70;99.90;;;;;;5032345;28;20078;-46
2021/05/12 03:16:12;;;;;;;30.23;20.15;;;12.70;99.90;;;;;;5030951;28;20103;-44
2021/05/12 03:18:38;;;;;;;29.70;20.45;;;12.70;99.90;;;;;;5031551;28;20399;-45
2021/05/12 03:21:04;;;;;;;34.78;21.65;;;12.70;99.90;;;;;;5030669;28;20026;-45
2021/05/12 03:23:30;;;;;;;30.13;19.52;;;12.70;99.90;;;;;;5031941;28;20036;-45
2021/05/12 03:25:56;;;;;;;31.80;20.55;;;12.70;99.90;;;;;;5032028;28;20021;-48
2021/05/12 03:28:22;;;;;;;32.42;20.33;;;12.70;99.90;;;;;;5030011;28;20021;-44
2021/05/12 03:30:48;;;;;;;29.52;19.50;;;12.70;99.90;;;;;;5031930;28;20022;-44
2021/05/12 03:33:13;;;;;;;34.70;22.20;;;12.70;99.90;;;;;;5030932;28;20178;-44
2021/05/12 03:35:41;;;;;;;37.42;21.73;;;12.70;99.90;;;;;;5032118;28;20033;-44
2021/05/12 03:38:08;;;;;;;33.90;21.13;;;12.70;99.90;;;;;;5031032;28;20121;-45
2021/05/12 03:40:35;;;;;;;28.50;21.00;;;12.70;99.90;;;;;;5031834;28;20052;-45
2021/05/12 03:43:01;;;;;;;28.05;19.73;;;12.60;99.90;;;;;;5031389;28;20030;-44
2021/05/12 03:45:27;;;;;;;34.15;19.60;;;12.60;99.90;;;;;;5031741;28;20021;-45
2021/05/12 03:47:53;;;;;;;34.20;20.42;;;12.60;99.90;;;;;;5029612;28;20475;-45
2021/05/12 03:50:19;;;;;;;26.80;18.00;;;12.50;99.90;;;;;;5031785;28;20040;-46
2021/05/12 03:52:45;;;;;;;29.17;17.55;;;12.50;99.90;;;;;;5031850;28;20034;-46
2021/05/12 03:55:13;;;;;;;29.90;17.92;;;12.40;99.90;;;;;;5031056;28;20036;-44
2021/05/12 03:57:39;;;;;;;28.00;18.13;;;12.40;99.90;;;;;;5030965;28;20033;-44
2021/05/12 04:00:06;;;;;;;28.52;18.25;;;12.40;99.90;;;;;;5031800;28;20021;-48
2021/05/12 04:02:32;;;;;;;31.45;18.70;;;12.40;99.90;;;;;;5031148;28;20041;-46
2021/05/12 04:04:57;;;;;;;32.42;19.13;;;12.40;99.90;;;;;;5031279;28;20033;-45
2021/05/12 04:07:22;;;;;;;31.85;19.05;;;12.30;99.90;;;;;;5030923;28;20132;-45
2021/05/12 04:09:48;;;;;;;32.45;19.98;;;12.40;99.90;;;;;;5030710;28;20029;-47
2021/05/12 04:12:14;;;;;;;32.17;21.60;;;12.30;99.90;;;;;;5031389;28;20524;-45
2021/05/12 04:14:39;;;;;;;36.63;22.75;;;12.30;99.90;;;;;;5030738;28;20065;-46
2021/05/12 04:17:05;;;;;;;35.45;21.80;;;12.30;99.90;;;;;;5030898;28;20072;-45
2021/05/12 04:19:32;;;;;;;42.65;23.60;;;12.30;99.90;;;;;;5030396;28;20060;-45
2021/05/12 04:21:58;;;;;;;42.78;23.70;;;12.30;99.90;;;;;;5029760;28;20022;-46
2021/05/12 04:24:24;;;;;;;38.65;23.52;;;12.30;99.90;;;;;;5033935;28;20030;-45
2021/05/12 04:26:49;;;;;;;42.03;23.58;;;12.30;99.90;;;;;;5034055;28;20028;-44
2021/05/12 04:29:16;;;;;;;44.22;24.67;;;12.30;99.90;;;;;;5031803;28;20033;-45
2021/05/12 04:31:42;;;;;;;45.63;25.65;;;12.30;99.90;;;;;;5036288;28;20471;-45
2021/05/12 04:34:08;;;;;;;47.63;27.70;;;12.30;99.90;;;;;;5032986;28;20036;-45
2021/05/12 04:36:33;;;;;;;41.28;25.00;;;12.30;99.90;;;;;;5032211;28;20025;-44
2021/05/12 04:38:59;;;;;;;38.47;25.17;;;12.30;99.90;;;;;;5029718;28;20028;-44
2021/05/12 04:41:24;;;;;;;47.97;26.02;;;12.40;99.90;;;;;;5030723;28;20164;-44
2021/05/12 04:43:50;;;;;;;38.92;24.63;;;12.40;99.90;;;;;;5028803;28;20014;-44
2021/05/12 04:46:16;;;;;;;39.80;24.88;;;12.40;99.90;;;;;;5029593;28;20111;-44
2021/05/12 04:48:42;;;;;;;42.33;24.17;;;12.40;99.90;;;;;;5030707;28;20071;-43
2021/05/12 04:51:07;;;;;;;39.38;24.30;;;12.40;99.90;;;;;;5030615;28;20033;-45
2021/05/12 04:53:34;;;;;;;38.92;24.35;;;12.40;99.90;;;;;;5029172;28;20430;-44
2021/05/12 04:56:00;;;;;;;34.88;22.92;;;12.40;99.90;;;;;;5028453;28;20107;-45
2021/05/12 04:58:25;;;;;;;43.22;23.52;;;12.40;99.90;;;;;;5029047;28;20302;-44
2021/05/12 05:00:51;;;;;;;34.28;20.88;;;12.40;99.90;;;;;;5030034;28;20029;-45
2021/05/12 05:03:16;;;;;;;36.28;22.10;;;12.50;99.90;;;;;;5029830;28;20029;-44
2021/05/12 05:05:42;;;;;;;37.47;22.60;;;12.50;99.90;;;;;;5029652;28;20480;-46
2021/05/12 05:08:07;;;;;;;39.78;22.20;;;12.50;99.90;;;;;;5028496;28;20045;-44
2021/05/12 05:10:34;;;;;;;38.75;22.10;;;12.40;99.90;;;;;;5029272;28;20029;-44
2021/05/12 05:12:59;;;;;;;33.55;21.98;;;12.40;99.90;;;;;;5029192;28;20379;-45
2021/05/12 05:15:26;;;;;;;34.40;21.48;;;12.40;99.90;;;;;;5028708;28;20039;-48
2021/05/12 05:17:53;;;;;;;38.60;22.80;;;12.50;99.90;;;;;;5029054;28;20029;-45
2021/05/12 05:20:21;;;;;;;43.30;22.75;;;12.50;99.90;;;;;;5029226;28;20602;-45
2021/05/12 05:22:48;;;;;;;41.80;23.73;;;12.50;99.90;;;;;;5029177;28;20063;-45
2021/05/12 05:25:13;;;;;;;36.67;22.25;;;12.60;99.90;;;;;;5029260;28;20033;-45
2021/05/12 05:27:39;;;;;;;40.35;23.35;;;12.50;99.90;;;;;;5029027;28;20026;-45
2021/05/12 05:30:05;;;;;;;37.85;23.70;;;12.60;99.90;;;;;;5029695;28;20047;-45
2021/05/12 05:32:31;;;;;;;38.97;23.27;;;12.60;99.90;;;;;;5029269;28;20517;-44
2021/05/12 05:34:57;;;;;;;41.67;23.98;;;12.70;99.90;;;;;;5029507;28;20037;-44
2021/05/12 05:37:24;;;;;;;39.63;24.88;;;12.70;99.90;;;;;;5026434;28;20432;-45
2021/05/12 05:39:50;;;;;;;41.08;23.40;;;12.70;99.90;;;;;;5015578;28;20413;-45
2021/05/12 05:42:16;;;;;;;37.75;22.70;;;12.70;99.90;;;;;;5007932;28;20057;-45
2021/05/12 05:44:44;;;;;;;41.72;24.30;;;12.70;99.90;;;;;;5026151;28;20438;-45
2021/05/12 05:47:10;;;;;;;42.60;23.23;;;12.70;99.90;;;;;;5025709;28;20578;-44
2021/05/12 05:49:35;;;;;;;40.33;24.65;;;12.80;99.90;;;;;;5026845;28;20105;-45
2021/05/12 05:52:02;;;;;;;47.10;24.80;;;12.80;99.90;;;;;;5028431;28;20172;-46
2021/05/12 05:54:28;;;;;;;40.05;25.13;;;12.80;99.90;;;;;;5025763;28;20045;-45
2021/05/12 05:56:53;;;;;;;41.90;24.58;;;12.80;99.90;;;;;;5028038;28;20602;-44
2021/05/12 05:59:19;;;;;;;44.38;25.65;;;12.80;99.90;;;;;;5025255;28;20044;-45
2021/05/12 06:01:44;;;;;;;41.60;25.63;;;12.80;99.90;;;;;;5027677;28;20055;-46
2021/05/12 06:04:10;;;;;;;44.72;26.60;;;12.80;99.90;;;;;;5027774;28;20113;-45
2021/05/12 06:06:37;;;;;;;38.28;23.00;;;12.90;99.90;;;;;;5027287;28;20080;-45
2021/05/12 06:09:03;;;;;;;38.50;24.77;;;13.00;99.90;;;;;;5026154;28;20087;-45
2021/05/12 06:11:28;;;;;;;42.42;24.75;;;13.00;99.90;;;;;;5026408;28;20033;-45
2021/05/12 06:13:54;;;;;;;43.83;24.55;;;13.00;99.90;;;;;;5027106;28;20079;-46
2021/05/12 06:16:19;;;;;;;37.10;23.30;;;13.00;99.90;;;;;;5027295;28;20026;-45
2021/05/12 06:18:45;;;;;;;39.55;24.00;;;13.00;99.90;;;;;;5027352;28;20028;-45
2021/05/12 06:21:12;;;;;;;34.95;21.75;;;13.00;99.90;;;;;;5027943;28;20021;-46
2021/05/12 06:23:39;;;;;;;39.42;23.92;;;13.10;99.90;;;;;;5028173;28;20588;-44
2021/05/12 06:26:13;;;;;;;35.28;21.50;;;13.10;99.90;;;;;;5025898;28;20021;-46
2021/05/12 06:28:39;;;;;;;35.05;20.55;;;13.10;99.90;;;;;;5027120;28;20021;-45
2021/05/12 06:31:05;;;;;;;36.25;22.70;;;13.10;99.90;;;;;;5027411;28;20064;-44
2021/05/12 06:33:30;;;;;;;32.50;20.85;;;13.10;99.90;;;;;;5026197;28;20059;-48
2021/05/12 06:35:55;;;;;;;41.35;21.70;;;13.10;99.90;;;;;;5026903;28;20491;-45
2021/05/12 06:38:21;;;;;;;35.72;21.38;;;13.10;99.90;;;;;;5026542;28;20032;-45
2021/05/12 06:40:47;;;;;;;33.70;21.30;;;13.10;99.90;;;;;;5027051;28;20128;-45
2021/05/12 06:43:12;;;;;;;41.75;23.27;;;13.10;99.90;;;;;;5024640;28;20383;-46
2021/05/12 06:45:37;;;;;;;41.83;24.38;;;13.00;99.90;;;;;;5025670;28;20144;-46
2021/05/12 06:48:03;;;;;;;37.58;23.13;;;13.00;99.90;;;;;;5024572;28;20047;-45
2021/05/12 06:50:29;;;;;;;34.45;22.80;;;13.00;99.90;;;;;;5025253;28;20030;-45
2021/05/12 06:52:55;;;;;;;37.45;23.25;;;13.00;99.90;;;;;;5036085;28;20028;-45
2021/05/12 06:55:22;;;;;;;41.35;24.15;;;13.00;99.90;;;;;;5025477;28;20034;-46
2021/05/12 06:57:48;;;;;;;37.15;22.88;;;13.00;99.90;;;;;;5008364;28;20037;-46
2021/05/12 07:00:14;;;;;;;37.05;24.38;;;13.00;99.90;;;;;;5026214;28;20052;-47
2021/05/12 07:02:41;;;;;;;34.50;23.42;;;13.00;99.90;;;;;;5028699;28;20029;-46
2021/05/12 07:05:07;;;;;;;31.13;21.98;;;13.00;99.90;;;;;;5026514;28;20248;-45
2021/05/12 07:07:33;;;;;;;38.03;22.20;;;13.10;99.90;;;;;;5024590;28;20095;-45
2021/05/12 07:09:58;;;;;;;33.13;21.27;;;13.20;99.90;;;;;;5026955;28;20668;-46
2021/05/12 07:12:25;;;;;;;36.90;22.02;;;13.30;99.90;;;;;;5026323;28;20076;-46
2021/05/12 07:14:50;;;;;;;33.75;21.77;;;13.40;99.90;;;;;;5027057;28;20106;-46
2021/05/12 07:17:16;;;;;;;30.80;21.08;;;13.50;99.90;;;;;;5027107;28;20572;-46
2021/05/12 07:19:42;;;;;;;28.85;19.45;;;13.50;99.90;;;;;;5026216;28;20101;-45
2021/05/12 07:22:08;;;;;;;32.92;20.88;;;13.50;99.90;;;;;;5027120;28;20323;-46
2021/05/12 07:24:33;;;;;;;30.08;20.38;;;13.40;99.90;;;;;;5026998;28;20491;-46
2021/05/12 07:26:59;;;;;;;32.97;21.73;;;13.40;99.90;;;;;;5027031;28;20139;-45
2021/05/12 07:29:24;;;;;;;33.17;20.30;;;13.50;99.90;;;;;;5026806;28;20040;-46
2021/05/12 07:31:50;;;;;;;31.45;20.75;;;13.50;99.90;;;;;;5026941;28;20129;-46
2021/05/12 07:34:15;;;;;;;38.50;19.92;;;13.60;99.90;;;;;;5025917;28;20030;-46
2021/05/12 07:36:41;;;;;;;46.42;21.70;;;13.60;99.90;;;;;;5026993;28;20036;-48
2021/05/12 07:39:07;;;;;;;31.58;20.30;;;13.60;99.90;;;;;;5033060;28;20035;-46
2021/05/12 07:41:35;;;;;;;32.05;20.17;;;13.60;99.90;;;;;;5046223;28;20029;-46
2021/05/12 07:44:01;;;;;;;28.20;20.05;;;13.60;99.90;;;;;;5039363;28;20021;-46
2021/05/12 07:46:26;;;;;;;33.60;21.67;;;13.60;99.90;;;;;;5026771;28;20025;-45
2021/05/12 07:48:52;;;;;;;33.47;20.83;;;13.70;99.90;;;;;;5025426;28;20567;-46
2021/05/12 07:51:18;;;;;;;32.05;20.65;;;13.70;99.90;;;;;;5025373;28;20032;-46
2021/05/12 07:53:43;;;;;;;31.08;20.95;;;13.70;99.90;;;;;;5026748;28;20029;-46
2021/05/12 07:56:09;;;;;;;39.65;20.95;;;13.70;99.90;;;;;;5027311;28;20037;-45
2021/05/12 07:58:34;;;;;;;36.28;21.15;;;13.70;99.90;;;;;;5029792;28;20033;-47
2021/05/12 08:01:06;;;;;;;32.47;21.00;;;13.60;99.90;;;;;;5029641;28;20457;-46
2021/05/12 08:03:32;;;;;;;31.77;20.55;;;13.60;99.90;;;;;;5027906;28;20383;-45
2021/05/12 08:05:57;;;;;;;31.50;19.98;;;13.50;99.90;;;;;;5028789;28;20022;-48
2021/05/12 08:08:23;;;;;;;35.85;20.42;;;13.60;99.90;;;;;;5028863;28;20029;-46
2021/05/12 08:10:50;;;;;;;27.50;18.08;;;13.50;99.90;;;;;;5029117;28;20176;-46
2021/05/12 08:13:15;;;;;;;37.42;19.83;;;13.50;99.90;;;;;;5030181;28;20026;-46
2021/05/12 08:15:42;;;;;;;30.10;20.55;;;13.50;99.90;;;;;;5029988;28;20044;-47
2021/05/12 08:18:07;;;;;;;32.35;19.73;;;13.50;99.90;;;;;;5029017;28;20515;-46
2021/05/12 08:20:34;;;;;;;35.35;19.88;;;13.40;99.90;;;;;;5028732;28;20104;-46
2021/05/12 08:22:59;;;;;;;32.53;20.95;;;13.40;99.90;;;;;;5029355;28;20036;-48
2021/05/12 08:25:25;;;;;;;31.73;20.48;;;13.40;99.90;;;;;;5028771;28;20022;-48
2021/05/12 08:27:53;;;;;;;33.90;21.67;;;13.40;99.90;;;;;;5028588;28;20041;-45
2021/05/12 08:30:23;;;;;;;31.90;20.20;;;13.40;99.90;;;;;;5029738;28;20119;-46
2021/05/12 08:32:50;;;;;;;32.72;20.73;;;13.50;99.90;;;;;;5029386;28;20041;-47
2021/05/12 08:35:16;;;;;;;34.50;19.45;;;13.50;99.90;;;;;;5028148;28;20036;-45
2021/05/12 08:37:42;;;;;;;31.60;20.27;;;13.50;99.90;;;;;;5024295;28;20033;-48
2021/05/12 08:40:08;;;;;;;30.85;18.20;;;13.50;99.90;;;;;;5027674;28;20033;-46
2021/05/12 08:42:35;;;;;;;31.73;19.50;;;13.60;99.90;;;;;;5028667;28;20021;-45
2021/05/12 08:45:02;;;;;;;26.85;17.55;;;13.70;99.90;;;;;;5025346;28;20503;-45
2021/05/12 08:47:29;;;;;;;28.33;18.08;;;13.80;99.90;;;;;;5011262;28;20026;-45
2021/05/12 08:49:55;;;;;;;27.42;18.00;;;13.90;99.90;;;;;;5008199;28;20101;-45
2021/05/12 08:52:22;;;;;;;26.23;16.58;;;13.90;99.90;;;;;;5008180;28;20255;-46
2021/05/12 08:54:49;;;;;;;30.08;16.85;;;14.00;99.90;;;;;;5014839;28;20487;-46
2021/05/12 08:57:14;;;;;;;22.98;15.70;;;14.20;99.90;;;;;;5026389;28;20526;-45
2021/05/12 08:59:41;;;;;;;23.25;15.32;;;14.40;99.90;;;;;;5027395;28;20053;-45
2021/05/12 09:02:07;;;;;;;21.33;14.65;;;14.60;99.90;;;;;;5027648;28;20042;-45
2021/05/12 09:04:34;;;;;;;23.77;15.82;;;14.60;99.90;;;;;;5027745;28;20071;-46
2021/05/12 09:07:00;;;;;;;22.75;15.15;;;14.60;99.90;;;;;;5026849;28;20543;-45
2021/05/12 09:09:27;;;;;;;25.48;14.65;;;14.60;99.90;;;;;;5029476;28;20079;-45
2021/05/12 09:11:56;;;;;;;22.65;15.70;;;14.40;99.90;;;;;;5047930;28;20187;-46
2021/05/12 09:14:40;;;;;;;20.98;15.38;;;14.40;99.90;;;;;;5048174;28;20070;-46
2021/05/12 09:17:06;;;;;;;22.30;16.50;;;14.40;99.90;;;;;;5043755;28;20029;-46
2021/05/12 09:19:32;;;;;;;21.95;15.68;;;14.30;99.90;;;;;;5008639;28;20483;-46
2021/05/12 09:22:05;;;;;;;30.23;16.42;;;14.30;99.90;;;;;;5008052;28;20034;-46
2021/05/12 09:24:32;;;;;;;25.15;16.83;;;14.20;99.90;;;;;;5024968;28;20026;-47
2021/05/12 09:26:59;;;;;;;24.98;15.90;;;14.10;99.90;;;;;;5024728;28;20033;-45
2021/05/12 09:29:34;;;;;;;25.95;16.13;;;14.10;99.90;;;;;;5007264;28;20096;-46
2021/05/12 09:32:10;;;;;;;28.42;17.30;;;14.00;99.90;;;;;;5007853;28;20424;-46
2021/05/12 09:35:00;;;;;;;25.75;16.50;;;13.80;99.90;;;;;;5016330;28;20065;-45
2021/05/12 09:37:29;;;;;;;23.53;16.00;;;13.80;99.90;;;;;;5027181;28;20531;-47
2021/05/12 09:39:57;;;;;;;26.20;17.45;;;13.80;99.90;;;;;;5027531;28;20235;-46
2021/05/12 09:42:23;;;;;;;23.02;14.90;;;13.80;99.90;;;;;;5025158;28;20037;-46
2021/05/12 09:45:21;;;;;;;25.13;15.13;;;13.80;99.90;;;;;;5027480;28;20545;-46
2021/05/12 09:47:53;;;;;;;27.55;16.13;;;13.90;99.90;;;;;;5026225;28;20036;-47
2021/05/12 09:50:28;;;;;;;21.02;14.15;;;14.10;99.90;;;;;;5028181;28;20021;-46
2021/05/12 09:52:57;;;;;;;25.05;15.52;;;14.30;99.90;;;;;;5023967;28;20098;-46
2021/05/12 09:55:47;;;;;;;19.03;11.67;;;14.30;99.90;;;;;;5026969;28;20057;-47
2021/05/12 09:58:13;;;;;;;18.27;12.55;;;14.40;99.90;;;;;;5026614;28;20457;-46
2021/05/12 10:00:43;;;;;;;18.33;12.38;;;14.30;99.90;;;;;;5027815;28;20055;-46
2021/05/12 10:03:10;;;;;;;20.92;13.90;;;14.40;99.90;;;;;;5026300;28;20231;-46
2021/05/12 10:05:57;;;;;;;18.30;12.88;;;14.40;99.90;;;;;;5027461;28;20084;-46
2021/05/12 10:08:33;;;;;;;15.25;10.70;;;14.30;99.90;;;;;;5025315;28;20481;-47
2021/05/12 10:11:01;;;;;;;21.38;12.63;;;14.50;99.90;;;;;;5028045;28;20030;-45
2021/05/12 10:13:27;;;;;;;20.13;13.75;;;14.50;99.90;;;;;;5025268;28;20438;-44
2021/05/12 10:15:53;;;;;;;21.85;14.57;;;14.50;99.90;;;;;;5027234;28;20025;-44
2021/05/12 10:18:18;;;;;;;20.60;14.02;;;14.40;99.90;;;;;;5025526;28;20041;-44
2021/05/12 10:20:44;;;;;;;21.73;13.35;;;14.30;99.90;;;;;;5026941;28;20032;-46
2021/05/12 10:23:10;;;;;;;20.05;12.73;;;14.20;99.90;;;;;;5026582;28;20030;-45
2021/05/12 10:25:39;;;;;;;19.52;12.10;;;14.10;99.90;;;;;;5027361;28;20087;-45
2021/05/12 10:28:07;;;;;;;21.88;12.63;;;13.90;99.90;;;;;;5007845;28;20412;-46
2021/05/12 10:30:33;;;;;;;20.60;13.23;;;13.80;99.90;;;;;;5008945;28;20453;-46
2021/05/12 10:32:59;;;;;;;20.17;12.02;;;13.60;99.90;;;;;;5008372;28;20065;-45
2021/05/12 10:35:39;;;;;;;18.50;13.50;;;13.70;99.90;;;;;;5008349;28;20032;-45
2021/05/12 10:38:07;;;;;;;16.98;11.88;;;13.60;99.90;;;;;;5008103;28;20021;-45
2021/05/12 10:40:41;;;;;;;18.70;12.25;;;13.60;99.90;;;;;;5026803;28;20041;-47
2021/05/12 10:43:29;;;;;;;20.58;13.65;;;13.60;99.90;;;;;;5027867;28;20486;-46
2021/05/12 10:46:15;;;;;;;21.38;12.02;;;13.70;99.90;;;;;;5027067;28;20034;-45
2021/05/12 10:48:48;;;;;;;17.45;11.55;;;13.80;99.90;;;;;;5027923;28;20056;-45
2021/05/12 10:51:24;;;;;;;15.18;11.02;;;13.90;99.90;;;;;;5028715;28;20068;-45
2021/05/12 10:53:52;;;;;;;16.38;11.60;;;13.90;99.90;;;;;;5028443;28;20048;-47
2021/05/12 10:56:20;;;;;;;18.98;11.63;;;14.00;99.90;;;;;;5027969;28;20486;-44
2021/05/12 10:59:04;;;;;;;16.92;12.32;;;14.00;99.90;;;;;;5026113;28;20083;-45
2021/05/12 11:01:43;;;;;;;17.00;10.95;;;14.00;99.90;;;;;;5026364;28;20049;-46
2021/05/12 11:04:11;;;;;;;16.33;10.57;;;14.10;99.90;;;;;;5025407;28;20540;-45
2021/05/12 11:06:39;;;;;;;16.48;11.00;;;14.10;99.90;;;;;;5028130;28;20022;-46
2021/05/12 11:09:08;;;;;;;13.30;10.13;;;14.20;99.90;;;;;;5027912;28;20026;-44
2021/05/12 11:11:52;;;;;;;13.93;9.70;;;14.30;99.90;;;;;;5026710;28;20018;-45
2021/05/12 11:14:22;;;;;;;14.63;9.70;;;14.30;99.90;;;;;;5028041;28;20416;-45
2021/05/12 11:17:11;;;;;;;15.15;9.95;;;14.40;99.90;;;;;;5027527;28;20040;-46
2021/05/12 11:19:40;;;;;;;10.70;8.95;;;14.40;99.90;;;;;;5025629;28;20702;-45
2021/05/12 11:22:38;;;;;;;12.02;9.25;;;14.40;99.90;;;;;;5027539;28;20446;-45
2021/05/12 11:25:22;;;;;;;12.25;8.27;;;14.30;99.90;;;;;;5026550;28;20021;-46
2021/05/12 11:28:18;;;;;;;14.68;9.30;;;14.30;99.90;;;;;;5027201;28;20380;-45
2021/05/12 11:33:36;;;;;;;12.80;8.98;;;14.30;99.90;;;;;;5031938;28;20501;-45
2021/05/12 11:36:13;;;;;;;17.15;8.65;;;14.30;99.90;;;;;;5031783;28;20029;-46
2021/05/12 11:38:39;;;;;;;14.45;8.80;;;14.30;99.90;;;;;;5030774;28;20108;-45
2021/05/12 11:41:06;;;;;;;9.70;8.32;;;14.30;99.90;;;;;;5030799;28;20091;-45
2021/05/12 11:43:41;;;;;;;14.57;8.23;;;14.30;99.90;;;;;;5028250;28;20037;-45
2021/05/12 11:46:09;;;;;;;15.50;9.10;;;14.40;99.90;;;;;;5031108;28;20033;-45
2021/05/12 11:48:42;;;;;;;12.65;8.25;;;14.40;99.90;;;;;;5029874;28;20037;-46
2021/05/12 11:51:08;;;;;;;13.65;9.55;;;14.40;99.90;;;;;;5028774;28;20064;-46
2021/05/12 11:53:35;;;;;;;13.10;8.32;;;14.50;99.90;;;;;;5030455;28;20032;-45
2021/05/12 11:56:01;;;;;;;12.63;8.02;;;14.50;99.90;;;;;;5028612;28;20032;-45
2021/05/12 11:58:26;;;;;;;11.20;8.48;;;14.50;99.90;;;;;;5029445;28;20394;-45
2021/05/12 12:00:55;;;;;;;9.25;7.75;;;14.40;99.90;;;;;;5029436;28;20487;-48
2021/05/12 12:03:25;;;;;;;9.25;7.25;;;14.40;99.90;;;;;;5029657;28;20022;-45
2021/05/12 12:06:05;;;;;;;8.30;7.40;;;14.40;99.90;;;;;;5028806;28;20029;-45
2021/05/12 12:08:32;;;;;;;8.68;6.88;;;14.40;99.90;;;;;;5027182;28;20033;-45
2021/05/12 12:11:13;;;;;;;7.43;6.45;;;14.40;99.90;;;;;;5021296;28;20121;-48
2021/05/12 12:13:40;;;;;;;;;;;14.50;99.90;;;;;;5016553;28;20034;-46
2021/05/12 12:16:06;;;;;;;11.95;7.82;;;14.40;99.90;;;;;;5015596;28;19956;-45
2021/05/12 12:18:42;;;;;;;7.72;6.93;;;14.40;99.90;;;;;;5022318;28;20045;-45
2021/05/12 12:21:11;;;;;;;8.77;7.40;;;14.50;99.90;;;;;;5014530;28;20029;-46
2021/05/12 12:23:39;;;;;;;9.13;7.88;;;14.50;99.90;;;;;;5017925;28;20044;-45
2021/05/12 12:26:16;;;;;;;8.75;7.35;;;14.60;99.90;;;;;;5011706;28;20018;-44
2021/05/12 12:28:49;;;;;;;8.70;7.50;;;14.60;99.90;;;;;;5011671;28;20045;-46
2021/05/12 12:31:19;;;;;;;8.60;7.38;;;14.60;99.90;;;;;;5022470;28;20026;-46
2021/05/12 12:34:11;;;;;;;11.38;7.93;;;14.50;99.90;;;;;;5014650;28;20468;-46
2021/05/12 12:37:25;;;;;;;8.63;7.80;;;14.50;99.90;;;;;;5027557;28;20079;-45